sensor_id;sensor_type;location;lat;lon;timestamp;P1;durP1;ratioP1;P2;durP2;ratioP2
52786;SDS011;38661;53.152;5.846;2024-01-07T00:00:13;11.25;;;7.07;;
52786;SDS011;38661;53.152;5.846;2024-01-07T00:02:41;11.93;;;7.05;;
52786;SDS011;38661;53.152;5.846;2024-01-07T00:05:06;12.73;;;7.18;;
52786;SDS011;38661;53.152;5.846;2024-01-07T00:07:32;10.50;;;6.80;;
52786;SDS011;38661;53.152;5.846;2024-01-07T00:09:58;9.20;;;6.45;;
52786;SDS011;38661;53.152;5.846;2024-01-07T00:12:24;10.43;;;7.60;;
52786;SDS011;38661;53.152;5.846;2024-01-07T00:14:50;10.40;;;7.05;;
52786;SDS011;38661;53.152;5.846;2024-01-07T00:17:16;11.82;;;7.47;;
52786;SDS011;38661;53.152;5.846;2024-01-07T00:19:41;11.40;;;6.97;;
52786;SDS011;38661;53.152;5.846;2024-01-07T00:22:07;11.55;;;7.43;;
52786;SDS011;38661;53.152;5.846;2024-01-07T00:24:33;11.48;;;7.65;;
52786;SDS011;38661;53.152;5.846;2024-01-07T00:26:58;13.00;;;7.93;;
52786;SDS011;38661;53.152;5.846;2024-01-07T00:29:24;10.73;;;7.05;;
52786;SDS011;38661;53.152;5.846;2024-01-07T00:31:50;10.80;;;8.23;;
52786;SDS011;38661;53.152;5.846;2024-01-07T00:34:16;12.18;;;7.32;;
52786;SDS011;38661;53.152;5.846;2024-01-07T00:36:41;12.18;;;7.57;;
52786;SDS011;38661;53.152;5.846;2024-01-07T00:39:07;11.30;;;7.15;;
52786;SDS011;38661;53.152;5.846;2024-01-07T00:41:33;11.60;;;7.45;;
52786;SDS011;38661;53.152;5.846;2024-01-07T00:43:58;13.38;;;7.60;;
52786;SDS011;38661;53.152;5.846;2024-01-07T00:46:24;11.60;;;8.02;;
52786;SDS011;38661;53.152;5.846;2024-01-07T00:48:50;10.50;;;7.00;;
52786;SDS011;38661;53.152;5.846;2024-01-07T00:51:15;9.77;;;7.28;;
52786;SDS011;38661;53.152;5.846;2024-01-07T00:53:41;11.48;;;7.57;;
52786;SDS011;38661;53.152;5.846;2024-01-07T00:56:07;10.30;;;7.20;;
52786;SDS011;38661;53.152;5.846;2024-01-07T00:58:33;10.43;;;7.05;;
52786;SDS011;38661;53.152;5.846;2024-01-07T01:00:58;9.55;;;6.57;;
52786;SDS011;38661;53.152;5.846;2024-01-07T01:03:25;10.20;;;7.15;;
52786;SDS011;38661;53.152;5.846;2024-01-07T01:05:51;13.25;;;7.50;;
52786;SDS011;38661;53.152;5.846;2024-01-07T01:08:17;10.27;;;7.03;;
52786;SDS011;38661;53.152;5.846;2024-01-07T01:10:43;11.40;;;8.18;;
52786;SDS011;38661;53.152;5.846;2024-01-07T01:13:09;12.23;;;7.43;;
52786;SDS011;38661;53.152;5.846;2024-01-07T01:15:35;12.88;;;7.68;;
52786;SDS011;38661;53.152;5.846;2024-01-07T01:18:00;11.93;;;7.88;;
52786;SDS011;38661;53.152;5.846;2024-01-07T01:20:26;11.90;;;7.78;;
52786;SDS011;38661;53.152;5.846;2024-01-07T01:22:52;11.43;;;7.13;;
52786;SDS011;38661;53.152;5.846;2024-01-07T01:25:18;9.55;;;6.57;;
52786;SDS011;38661;53.152;5.846;2024-01-07T01:27:43;15.70;;;8.50;;
52786;SDS011;38661;53.152;5.846;2024-01-07T01:30:10;10.30;;;7.00;;
52786;SDS011;38661;53.152;5.846;2024-01-07T01:32:36;14.07;;;8.13;;
52786;SDS011;38661;53.152;5.846;2024-01-07T01:35:02;11.85;;;7.88;;
52786;SDS011;38661;53.152;5.846;2024-01-07T01:37:29;12.05;;;7.60;;
52786;SDS011;38661;53.152;5.846;2024-01-07T01:39:57;11.77;;;8.13;;
52786;SDS011;38661;53.152;5.846;2024-01-07T01:42:23;12.27;;;7.90;;
52786;SDS011;38661;53.152;5.846;2024-01-07T01:44:49;12.63;;;8.73;;
52786;SDS011;38661;53.152;5.846;2024-01-07T01:47:15;14.80;;;8.75;;
52786;SDS011;38661;53.152;5.846;2024-01-07T01:49:41;12.15;;;8.38;;
52786;SDS011;38661;53.152;5.846;2024-01-07T01:52:08;12.38;;;8.23;;
52786;SDS011;38661;53.152;5.846;2024-01-07T01:54:34;10.68;;;8.00;;
52786;SDS011;38661;53.152;5.846;2024-01-07T01:57:00;11.50;;;7.53;;
52786;SDS011;38661;53.152;5.846;2024-01-07T01:59:26;12.05;;;7.53;;
52786;SDS011;38661;53.152;5.846;2024-01-07T02:01:54;10.90;;;6.40;;
52786;SDS011;38661;53.152;5.846;2024-01-07T02:04:20;14.25;;;7.32;;
52786;SDS011;38661;53.152;5.846;2024-01-07T02:06:46;11.50;;;8.23;;
52786;SDS011;38661;53.152;5.846;2024-01-07T02:09:12;15.07;;;8.40;;
52786;SDS011;38661;53.152;5.846;2024-01-07T02:11:37;12.85;;;7.40;;
52786;SDS011;38661;53.152;5.846;2024-01-07T02:14:03;10.18;;;7.32;;
52786;SDS011;38661;53.152;5.846;2024-01-07T02:16:29;13.10;;;6.85;;
52786;SDS011;38661;53.152;5.846;2024-01-07T02:18:55;10.65;;;6.90;;
52786;SDS011;38661;53.152;5.846;2024-01-07T02:21:20;12.70;;;8.57;;
52786;SDS011;38661;53.152;5.846;2024-01-07T02:23:46;10.35;;;7.05;;
52786;SDS011;38661;53.152;5.846;2024-01-07T02:26:12;10.57;;;6.75;;
52786;SDS011;38661;53.152;5.846;2024-01-07T02:28:37;10.65;;;7.20;;
52786;SDS011;38661;53.152;5.846;2024-01-07T02:31:03;11.07;;;7.80;;
52786;SDS011;38661;53.152;5.846;2024-01-07T02:33:29;9.38;;;6.85;;
52786;SDS011;38661;53.152;5.846;2024-01-07T02:35:55;11.57;;;7.38;;
52786;SDS011;38661;53.152;5.846;2024-01-07T02:38:21;11.20;;;6.63;;
52786;SDS011;38661;53.152;5.846;2024-01-07T02:40:47;11.25;;;6.93;;
52786;SDS011;38661;53.152;5.846;2024-01-07T02:43:13;9.88;;;6.68;;
52786;SDS011;38661;53.152;5.846;2024-01-07T02:45:39;9.77;;;7.07;;
52786;SDS011;38661;53.152;5.846;2024-01-07T02:48:04;12.10;;;7.00;;
52786;SDS011;38661;53.152;5.846;2024-01-07T02:50:31;11.32;;;7.13;;
52786;SDS011;38661;53.152;5.846;2024-01-07T02:52:57;9.88;;;6.30;;
52786;SDS011;38661;53.152;5.846;2024-01-07T02:55:23;9.73;;;6.35;;
52786;SDS011;38661;53.152;5.846;2024-01-07T02:57:48;10.30;;;6.28;;
52786;SDS011;38661;53.152;5.846;2024-01-07T03:00:14;9.38;;;5.88;;
52786;SDS011;38661;53.152;5.846;2024-01-07T03:02:40;11.52;;;5.88;;
52786;SDS011;38661;53.152;5.846;2024-01-07T03:05:06;8.88;;;5.75;;
52786;SDS011;38661;53.152;5.846;2024-01-07T03:07:32;10.27;;;6.60;;
52786;SDS011;38661;53.152;5.846;2024-01-07T03:09:57;11.93;;;6.88;;
52786;SDS011;38661;53.152;5.846;2024-01-07T03:12:23;8.32;;;5.00;;
52786;SDS011;38661;53.152;5.846;2024-01-07T03:14:49;9.77;;;5.68;;
52786;SDS011;38661;53.152;5.846;2024-01-07T03:17:14;11.15;;;6.78;;
52786;SDS011;38661;53.152;5.846;2024-01-07T03:19:42;9.90;;;6.18;;
52786;SDS011;38661;53.152;5.846;2024-01-07T03:22:08;9.13;;;5.43;;
52786;SDS011;38661;53.152;5.846;2024-01-07T03:24:33;7.18;;;5.88;;
52786;SDS011;38661;53.152;5.846;2024-01-07T03:26:59;8.10;;;5.63;;
52786;SDS011;38661;53.152;5.846;2024-01-07T03:29:25;9.80;;;5.60;;
52786;SDS011;38661;53.152;5.846;2024-01-07T03:31:50;10.00;;;6.13;;
52786;SDS011;38661;53.152;5.846;2024-01-07T03:34:18;9.23;;;5.85;;
52786;SDS011;38661;53.152;5.846;2024-01-07T03:36:44;9.13;;;5.47;;
52786;SDS011;38661;53.152;5.846;2024-01-07T03:39:09;8.60;;;5.30;;
52786;SDS011;38661;53.152;5.846;2024-01-07T03:41:35;6.88;;;4.97;;
52786;SDS011;38661;53.152;5.846;2024-01-07T03:44:01;8.38;;;5.18;;
52786;SDS011;38661;53.152;5.846;2024-01-07T03:46:27;8.32;;;5.60;;
52786;SDS011;38661;53.152;5.846;2024-01-07T03:48:52;8.05;;;4.50;;
52786;SDS011;38661;53.152;5.846;2024-01-07T03:51:18;8.80;;;4.85;;
52786;SDS011;38661;53.152;5.846;2024-01-07T03:53:44;6.45;;;4.18;;
52786;SDS011;38661;53.152;5.846;2024-01-07T03:56:09;6.13;;;4.75;;
52786;SDS011;38661;53.152;5.846;2024-01-07T03:58:35;7.40;;;4.55;;
52786;SDS011;38661;53.152;5.846;2024-01-07T04:01:01;7.43;;;4.65;;
52786;SDS011;38661;53.152;5.846;2024-01-07T04:03:27;6.82;;;4.55;;
52786;SDS011;38661;53.152;5.846;2024-01-07T04:05:52;6.68;;;4.68;;
52786;SDS011;38661;53.152;5.846;2024-01-07T04:08:18;6.82;;;4.30;;
52786;SDS011;38661;53.152;5.846;2024-01-07T04:10:44;5.32;;;4.00;;
52786;SDS011;38661;53.152;5.846;2024-01-07T04:13:09;5.28;;;3.53;;
52786;SDS011;38661;53.152;5.846;2024-01-07T04:15:35;4.10;;;3.30;;
52786;SDS011;38661;53.152;5.846;2024-01-07T04:18:02;5.93;;;3.65;;
52786;SDS011;38661;53.152;5.846;2024-01-07T04:20:28;4.47;;;3.58;;
52786;SDS011;38661;53.152;5.846;2024-01-07T04:22:54;6.60;;;3.70;;
52786;SDS011;38661;53.152;5.846;2024-01-07T04:25:20;5.13;;;3.13;;
52786;SDS011;38661;53.152;5.846;2024-01-07T04:27:46;5.60;;;3.53;;
52786;SDS011;38661;53.152;5.846;2024-01-07T04:30:12;5.80;;;3.60;;
52786;SDS011;38661;53.152;5.846;2024-01-07T04:32:37;6.90;;;3.00;;
52786;SDS011;38661;53.152;5.846;2024-01-07T04:35:03;4.18;;;2.72;;
52786;SDS011;38661;53.152;5.846;2024-01-07T04:37:29;9.18;;;4.40;;
52786;SDS011;38661;53.152;5.846;2024-01-07T04:39:55;6.43;;;3.40;;
52786;SDS011;38661;53.152;5.846;2024-01-07T04:42:21;4.65;;;3.40;;
52786;SDS011;38661;53.152;5.846;2024-01-07T04:44:46;4.63;;;3.30;;
52786;SDS011;38661;53.152;5.846;2024-01-07T04:47:31;5.93;;;3.65;;
52786;SDS011;38661;53.152;5.846;2024-01-07T04:50:02;8.60;;;4.22;;
52786;SDS011;38661;53.152;5.846;2024-01-07T04:52:28;5.85;;;3.35;;
52786;SDS011;38661;53.152;5.846;2024-01-07T04:54:54;4.72;;;3.00;;
52786;SDS011;38661;53.152;5.846;2024-01-07T04:57:21;6.53;;;3.40;;
52786;SDS011;38661;53.152;5.846;2024-01-07T04:59:47;4.72;;;3.30;;
52786;SDS011;38661;53.152;5.846;2024-01-07T05:02:14;5.43;;;3.30;;
52786;SDS011;38661;53.152;5.846;2024-01-07T05:04:40;5.55;;;3.17;;
52786;SDS011;38661;53.152;5.846;2024-01-07T05:07:06;5.65;;;3.20;;
52786;SDS011;38661;53.152;5.846;2024-01-07T05:09:32;4.88;;;3.15;;
52786;SDS011;38661;53.152;5.846;2024-01-07T05:11:58;4.18;;;2.88;;
52786;SDS011;38661;53.152;5.846;2024-01-07T05:14:24;6.13;;;3.15;;
52786;SDS011;38661;53.152;5.846;2024-01-07T05:16:49;5.18;;;2.45;;
52786;SDS011;38661;53.152;5.846;2024-01-07T05:19:15;4.55;;;2.85;;
52786;SDS011;38661;53.152;5.846;2024-01-07T05:21:41;5.40;;;3.03;;
52786;SDS011;38661;53.152;5.846;2024-01-07T05:24:07;5.03;;;2.30;;
52786;SDS011;38661;53.152;5.846;2024-01-07T05:26:39;5.35;;;2.40;;
52786;SDS011;38661;53.152;5.846;2024-01-07T05:29:09;4.28;;;2.50;;
52786;SDS011;38661;53.152;5.846;2024-01-07T05:31:35;3.15;;;2.30;;
52786;SDS011;38661;53.152;5.846;2024-01-07T05:34:01;3.95;;;2.15;;
52786;SDS011;38661;53.152;5.846;2024-01-07T05:36:26;4.25;;;2.20;;
52786;SDS011;38661;53.152;5.846;2024-01-07T05:38:52;3.55;;;2.58;;
52786;SDS011;38661;53.152;5.846;2024-01-07T05:41:18;5.00;;;2.40;;
52786;SDS011;38661;53.152;5.846;2024-01-07T05:43:43;5.93;;;2.85;;
52786;SDS011;38661;53.152;5.846;2024-01-07T05:46:09;5.32;;;2.50;;
52786;SDS011;38661;53.152;5.846;2024-01-07T05:51:09;3.85;;;2.25;;
52786;SDS011;38661;53.152;5.846;2024-01-07T05:53:35;5.82;;;2.20;;
52786;SDS011;38661;53.152;5.846;2024-01-07T05:56:01;4.22;;;2.08;;
52786;SDS011;38661;53.152;5.846;2024-01-07T05:58:27;3.58;;;1.90;;
52786;SDS011;38661;53.152;5.846;2024-01-07T06:00:53;4.53;;;2.00;;
52786;SDS011;38661;53.152;5.846;2024-01-07T06:03:19;5.05;;;2.75;;
52786;SDS011;38661;53.152;5.846;2024-01-07T06:05:45;4.63;;;2.20;;
52786;SDS011;38661;53.152;5.846;2024-01-07T06:08:11;6.43;;;2.25;;
52786;SDS011;38661;53.152;5.846;2024-01-07T06:10:38;4.95;;;2.20;;
52786;SDS011;38661;53.152;5.846;2024-01-07T06:13:04;3.70;;;2.03;;
52786;SDS011;38661;53.152;5.846;2024-01-07T06:15:30;5.35;;;2.05;;
52786;SDS011;38661;53.152;5.846;2024-01-07T06:17:56;4.30;;;2.00;;
52786;SDS011;38661;53.152;5.846;2024-01-07T06:20:21;3.22;;;1.52;;
52786;SDS011;38661;53.152;5.846;2024-01-07T06:22:47;2.20;;;1.25;;
52786;SDS011;38661;53.152;5.846;2024-01-07T06:25:13;2.85;;;1.70;;
52786;SDS011;38661;53.152;5.846;2024-01-07T06:27:39;5.28;;;1.80;;
52786;SDS011;38661;53.152;5.846;2024-01-07T06:30:05;4.68;;;1.70;;
52786;SDS011;38661;53.152;5.846;2024-01-07T06:32:31;2.63;;;1.95;;
52786;SDS011;38661;53.152;5.846;2024-01-07T06:35:00;3.85;;;1.55;;
52786;SDS011;38661;53.152;5.846;2024-01-07T06:37:26;4.38;;;1.67;;
52786;SDS011;38661;53.152;5.846;2024-01-07T06:39:54;3.38;;;2.30;;
52786;SDS011;38661;53.152;5.846;2024-01-07T06:42:20;2.40;;;1.67;;
52786;SDS011;38661;53.152;5.846;2024-01-07T06:44:46;3.20;;;1.70;;
52786;SDS011;38661;53.152;5.846;2024-01-07T06:47:11;3.35;;;1.60;;
52786;SDS011;38661;53.152;5.846;2024-01-07T06:49:37;4.47;;;1.85;;
52786;SDS011;38661;53.152;5.846;2024-01-07T06:52:04;2.78;;;1.70;;
52786;SDS011;38661;53.152;5.846;2024-01-07T06:54:30;2.20;;;1.30;;
52786;SDS011;38661;53.152;5.846;2024-01-07T06:56:56;4.53;;;1.67;;
52786;SDS011;38661;53.152;5.846;2024-01-07T06:59:21;4.30;;;1.60;;
52786;SDS011;38661;53.152;5.846;2024-01-07T07:01:47;5.20;;;1.58;;
52786;SDS011;38661;53.152;5.846;2024-01-07T07:04:13;4.13;;;1.88;;
52786;SDS011;38661;53.152;5.846;2024-01-07T07:06:38;3.75;;;1.55;;
52786;SDS011;38661;53.152;5.846;2024-01-07T07:09:04;3.25;;;1.60;;
52786;SDS011;38661;53.152;5.846;2024-01-07T07:11:30;4.80;;;1.70;;
52786;SDS011;38661;53.152;5.846;2024-01-07T07:13:56;3.17;;;2.10;;
52786;SDS011;38661;53.152;5.846;2024-01-07T07:16:22;3.35;;;1.65;;
52786;SDS011;38661;53.152;5.846;2024-01-07T07:18:48;4.55;;;1.70;;
52786;SDS011;38661;53.152;5.846;2024-01-07T07:21:13;2.80;;;1.48;;
52786;SDS011;38661;53.152;5.846;2024-01-07T07:23:39;2.58;;;1.40;;
52786;SDS011;38661;53.152;5.846;2024-01-07T07:26:05;2.00;;;1.42;;
52786;SDS011;38661;53.152;5.846;2024-01-07T07:28:32;5.28;;;1.83;;
52786;SDS011;38661;53.152;5.846;2024-01-07T07:30:57;2.60;;;1.85;;
52786;SDS011;38661;53.152;5.846;2024-01-07T07:33:23;4.03;;;1.70;;
52786;SDS011;38661;53.152;5.846;2024-01-07T07:35:49;3.45;;;1.83;;
52786;SDS011;38661;53.152;5.846;2024-01-07T07:38:15;4.93;;;1.83;;
52786;SDS011;38661;53.152;5.846;2024-01-07T07:40:41;4.13;;;1.75;;
52786;SDS011;38661;53.152;5.846;2024-01-07T07:43:07;4.40;;;2.05;;
52786;SDS011;38661;53.152;5.846;2024-01-07T07:45:33;4.22;;;1.90;;
52786;SDS011;38661;53.152;5.846;2024-01-07T07:47:59;5.13;;;1.95;;
52786;SDS011;38661;53.152;5.846;2024-01-07T07:50:25;3.55;;;1.63;;
52786;SDS011;38661;53.152;5.846;2024-01-07T07:52:51;3.47;;;1.92;;
52786;SDS011;38661;53.152;5.846;2024-01-07T07:55:16;3.90;;;1.77;;
52786;SDS011;38661;53.152;5.846;2024-01-07T07:57:42;3.00;;;2.00;;
52786;SDS011;38661;53.152;5.846;2024-01-07T08:00:08;2.90;;;2.00;;
52786;SDS011;38661;53.152;5.846;2024-01-07T08:02:37;4.10;;;2.40;;
52786;SDS011;38661;53.152;5.846;2024-01-07T08:05:04;3.25;;;2.20;;
52786;SDS011;38661;53.152;5.846;2024-01-07T08:07:31;6.07;;;2.55;;
52786;SDS011;38661;53.152;5.846;2024-01-07T08:09:57;5.35;;;2.40;;
52786;SDS011;38661;53.152;5.846;2024-01-07T08:12:23;3.92;;;2.25;;
52786;SDS011;38661;53.152;5.846;2024-01-07T08:14:48;4.93;;;2.42;;
52786;SDS011;38661;53.152;5.846;2024-01-07T08:17:14;4.07;;;2.17;;
52786;SDS011;38661;53.152;5.846;2024-01-07T08:19:40;3.10;;;1.90;;
52786;SDS011;38661;53.152;5.846;2024-01-07T08:22:06;4.28;;;1.90;;
52786;SDS011;38661;53.152;5.846;2024-01-07T08:24:32;4.78;;;2.00;;
52786;SDS011;38661;53.152;5.846;2024-01-07T08:26:58;3.35;;;1.98;;
52786;SDS011;38661;53.152;5.846;2024-01-07T08:29:24;3.03;;;1.85;;
52786;SDS011;38661;53.152;5.846;2024-01-07T08:31:50;3.35;;;2.05;;
52786;SDS011;38661;53.152;5.846;2024-01-07T08:34:16;6.20;;;2.42;;
52786;SDS011;38661;53.152;5.846;2024-01-07T08:36:42;3.25;;;1.80;;
52786;SDS011;38661;53.152;5.846;2024-01-07T08:39:07;3.45;;;2.10;;
52786;SDS011;38661;53.152;5.846;2024-01-07T08:41:33;3.30;;;1.73;;
52786;SDS011;38661;53.152;5.846;2024-01-07T08:43:59;3.85;;;2.22;;
52786;SDS011;38661;53.152;5.846;2024-01-07T08:46:24;3.78;;;2.03;;
52786;SDS011;38661;53.152;5.846;2024-01-07T08:48:50;2.42;;;1.80;;
52786;SDS011;38661;53.152;5.846;2024-01-07T08:51:16;3.33;;;2.15;;
52786;SDS011;38661;53.152;5.846;2024-01-07T08:53:42;4.10;;;2.05;;
52786;SDS011;38661;53.152;5.846;2024-01-07T08:56:08;4.18;;;1.90;;
52786;SDS011;38661;53.152;5.846;2024-01-07T08:58:34;3.05;;;1.90;;
52786;SDS011;38661;53.152;5.846;2024-01-07T09:00:59;2.92;;;1.60;;
52786;SDS011;38661;53.152;5.846;2024-01-07T09:03:25;4.30;;;2.05;;
52786;SDS011;38661;53.152;5.846;2024-01-07T09:05:51;3.95;;;2.28;;
52786;SDS011;38661;53.152;5.846;2024-01-07T09:08:17;3.00;;;2.10;;
52786;SDS011;38661;53.152;5.846;2024-01-07T09:10:42;4.75;;;2.30;;
52786;SDS011;38661;53.152;5.846;2024-01-07T09:13:08;4.28;;;2.15;;
52786;SDS011;38661;53.152;5.846;2024-01-07T09:15:34;3.42;;;1.92;;
52786;SDS011;38661;53.152;5.846;2024-01-07T09:18:00;4.35;;;2.92;;
52786;SDS011;38661;53.152;5.846;2024-01-07T09:20:26;3.85;;;2.47;;
52786;SDS011;38661;53.152;5.846;2024-01-07T09:22:51;3.00;;;1.70;;
52786;SDS011;38661;53.152;5.846;2024-01-07T09:25:17;3.75;;;2.60;;
52786;SDS011;38661;53.152;5.846;2024-01-07T09:27:43;3.55;;;1.70;;
52786;SDS011;38661;53.152;5.846;2024-01-07T09:30:09;4.78;;;1.92;;
52786;SDS011;38661;53.152;5.846;2024-01-07T09:32:40;4.65;;;2.30;;
52786;SDS011;38661;53.152;5.846;2024-01-07T09:35:06;4.55;;;2.10;;
52786;SDS011;38661;53.152;5.846;2024-01-07T09:37:32;3.50;;;1.90;;
52786;SDS011;38661;53.152;5.846;2024-01-07T09:39:58;5.40;;;3.42;;
52786;SDS011;38661;53.152;5.846;2024-01-07T09:42:24;4.15;;;1.88;;
52786;SDS011;38661;53.152;5.846;2024-01-07T09:44:50;3.83;;;2.17;;
52786;SDS011;38661;53.152;5.846;2024-01-07T09:47:16;3.05;;;1.63;;
52786;SDS011;38661;53.152;5.846;2024-01-07T09:49:42;4.78;;;1.90;;
52786;SDS011;38661;53.152;5.846;2024-01-07T09:52:09;3.92;;;2.00;;
52786;SDS011;38661;53.152;5.846;2024-01-07T09:54:36;3.60;;;2.00;;
52786;SDS011;38661;53.152;5.846;2024-01-07T09:57:06;4.30;;;2.42;;
52786;SDS011;38661;53.152;5.846;2024-01-07T09:59:33;4.40;;;2.85;;
52786;SDS011;38661;53.152;5.846;2024-01-07T10:02:00;3.58;;;1.95;;
52786;SDS011;38661;53.152;5.846;2024-01-07T10:04:26;4.25;;;2.20;;
52786;SDS011;38661;53.152;5.846;2024-01-07T10:06:56;4.03;;;2.13;;
52786;SDS011;38661;53.152;5.846;2024-01-07T10:09:22;2.47;;;1.65;;
52786;SDS011;38661;53.152;5.846;2024-01-07T10:12:08;3.13;;;1.60;;
52786;SDS011;38661;53.152;5.846;2024-01-07T10:14:35;2.50;;;1.80;;
52786;SDS011;38661;53.152;5.846;2024-01-07T10:17:00;3.13;;;1.90;;
52786;SDS011;38661;53.152;5.846;2024-01-07T10:19:26;2.92;;;2.03;;
52786;SDS011;38661;53.152;5.846;2024-01-07T10:21:59;5.57;;;2.10;;
52786;SDS011;38661;53.152;5.846;2024-01-07T10:24:25;4.93;;;2.22;;
52786;SDS011;38661;53.152;5.846;2024-01-07T10:26:51;5.72;;;2.05;;
52786;SDS011;38661;53.152;5.846;2024-01-07T10:29:17;4.30;;;2.20;;
52786;SDS011;38661;53.152;5.846;2024-01-07T10:31:43;4.28;;;2.47;;
52786;SDS011;38661;53.152;5.846;2024-01-07T10:34:09;3.75;;;2.00;;
52786;SDS011;38661;53.152;5.846;2024-01-07T10:36:35;2.80;;;2.30;;
52786;SDS011;38661;53.152;5.846;2024-01-07T10:39:02;3.53;;;2.10;;
52786;SDS011;38661;53.152;5.846;2024-01-07T10:41:28;6.07;;;2.50;;
52786;SDS011;38661;53.152;5.846;2024-01-07T10:43:55;4.85;;;2.28;;
52786;SDS011;38661;53.152;5.846;2024-01-07T10:46:21;4.53;;;2.15;;
52786;SDS011;38661;53.152;5.846;2024-01-07T10:48:54;4.30;;;2.00;;
52786;SDS011;38661;53.152;5.846;2024-01-07T10:51:24;5.28;;;1.90;;
52786;SDS011;38661;53.152;5.846;2024-01-07T10:53:52;3.88;;;1.95;;
52786;SDS011;38661;53.152;5.846;2024-01-07T10:56:21;3.45;;;1.98;;
52786;SDS011;38661;53.152;5.846;2024-01-07T10:58:49;3.17;;;2.10;;
52786;SDS011;38661;53.152;5.846;2024-01-07T11:01:19;3.17;;;2.20;;
52786;SDS011;38661;53.152;5.846;2024-01-07T11:09:25;4.80;;;2.50;;
52786;SDS011;38661;53.152;5.846;2024-01-07T11:12:10;3.90;;;2.40;;
52786;SDS011;38661;53.152;5.846;2024-01-07T11:14:40;3.55;;;2.63;;
52786;SDS011;38661;53.152;5.846;2024-01-07T11:17:10;3.53;;;2.08;;
52786;SDS011;38661;53.152;5.846;2024-01-07T11:19:38;6.05;;;2.78;;
52786;SDS011;38661;53.152;5.846;2024-01-07T11:24:49;4.50;;;2.83;;
52786;SDS011;38661;53.152;5.846;2024-01-07T11:27:15;3.22;;;2.10;;
52786;SDS011;38661;53.152;5.846;2024-01-07T11:29:41;4.50;;;3.10;;
52786;SDS011;38661;53.152;5.846;2024-01-07T11:32:07;4.40;;;2.60;;
52786;SDS011;38661;53.152;5.846;2024-01-07T11:34:40;4.40;;;2.60;;
52786;SDS011;38661;53.152;5.846;2024-01-07T11:37:09;3.92;;;2.42;;
52786;SDS011;38661;53.152;5.846;2024-01-07T11:39:37;5.90;;;2.63;;
52786;SDS011;38661;53.152;5.846;2024-01-07T11:42:05;4.25;;;2.35;;
52786;SDS011;38661;53.152;5.846;2024-01-07T11:44:33;4.95;;;2.58;;
52786;SDS011;38661;53.152;5.846;2024-01-07T11:47:02;3.28;;;2.30;;
52786;SDS011;38661;53.152;5.846;2024-01-07T11:49:29;4.22;;;2.55;;
52786;SDS011;38661;53.152;5.846;2024-01-07T11:51:54;4.50;;;2.25;;
52786;SDS011;38661;53.152;5.846;2024-01-07T11:54:20;3.83;;;2.33;;
52786;SDS011;38661;53.152;5.846;2024-01-07T11:56:46;3.78;;;2.15;;
52786;SDS011;38661;53.152;5.846;2024-01-07T11:59:11;3.03;;;2.05;;
52786;SDS011;38661;53.152;5.846;2024-01-07T12:01:37;4.20;;;2.63;;
52786;SDS011;38661;53.152;5.846;2024-01-07T12:04:03;8.20;;;2.78;;
52786;SDS011;38661;53.152;5.846;2024-01-07T12:06:29;4.07;;;2.17;;
52786;SDS011;38661;53.152;5.846;2024-01-07T12:08:55;7.15;;;2.75;;
52786;SDS011;38661;53.152;5.846;2024-01-07T12:11:21;4.40;;;2.30;;
52786;SDS011;38661;53.152;5.846;2024-01-07T12:13:46;4.40;;;2.05;;
52786;SDS011;38661;53.152;5.846;2024-01-07T12:16:14;3.42;;;2.28;;
52786;SDS011;38661;53.152;5.846;2024-01-07T12:18:40;5.18;;;2.40;;
52786;SDS011;38661;53.152;5.846;2024-01-07T12:21:06;4.57;;;2.25;;
52786;SDS011;38661;53.152;5.846;2024-01-07T12:23:35;2.70;;;2.03;;
52786;SDS011;38661;53.152;5.846;2024-01-07T12:26:07;6.20;;;2.72;;
52786;SDS011;38661;53.152;5.846;2024-01-07T12:28:34;3.88;;;2.60;;
52786;SDS011;38661;53.152;5.846;2024-01-07T12:31:00;4.25;;;2.20;;
52786;SDS011;38661;53.152;5.846;2024-01-07T12:33:26;5.53;;;2.75;;
52786;SDS011;38661;53.152;5.846;2024-01-07T12:35:54;4.55;;;2.50;;
52786;SDS011;38661;53.152;5.846;2024-01-07T12:38:23;5.72;;;2.75;;
52786;SDS011;38661;53.152;5.846;2024-01-07T12:40:50;3.60;;;2.75;;
52786;SDS011;38661;53.152;5.846;2024-01-07T12:43:16;5.15;;;3.13;;
52786;SDS011;38661;53.152;5.846;2024-01-07T12:45:42;5.20;;;2.53;;
52786;SDS011;38661;53.152;5.846;2024-01-07T12:48:09;3.67;;;2.78;;
52786;SDS011;38661;53.152;5.846;2024-01-07T12:50:35;5.32;;;2.80;;
52786;SDS011;38661;53.152;5.846;2024-01-07T12:53:01;4.25;;;2.30;;
52786;SDS011;38661;53.152;5.846;2024-01-07T12:55:26;5.80;;;2.50;;
52786;SDS011;38661;53.152;5.846;2024-01-07T12:57:52;6.97;;;2.45;;
52786;SDS011;38661;53.152;5.846;2024-01-07T13:00:19;5.30;;;2.88;;
52786;SDS011;38661;53.152;5.846;2024-01-07T13:02:45;4.35;;;2.35;;
52786;SDS011;38661;53.152;5.846;2024-01-07T13:05:11;2.70;;;2.40;;
52786;SDS011;38661;53.152;5.846;2024-01-07T13:07:38;2.83;;;2.38;;
52786;SDS011;38661;53.152;5.846;2024-01-07T13:10:04;6.15;;;2.83;;
52786;SDS011;38661;53.152;5.846;2024-01-07T13:12:31;4.78;;;2.47;;
52786;SDS011;38661;53.152;5.846;2024-01-07T13:14:56;5.35;;;2.92;;
52786;SDS011;38661;53.152;5.846;2024-01-07T13:17:22;4.75;;;2.97;;
52786;SDS011;38661;53.152;5.846;2024-01-07T13:19:48;3.45;;;2.15;;
52786;SDS011;38661;53.152;5.846;2024-01-07T13:22:14;4.35;;;2.67;;
52786;SDS011;38661;53.152;5.846;2024-01-07T13:24:40;6.78;;;3.20;;
52786;SDS011;38661;53.152;5.846;2024-01-07T13:27:06;3.50;;;2.42;;
52786;SDS011;38661;53.152;5.846;2024-01-07T13:29:33;2.63;;;1.92;;
52786;SDS011;38661;53.152;5.846;2024-01-07T13:32:00;5.18;;;2.35;;
52786;SDS011;38661;53.152;5.846;2024-01-07T13:34:25;4.35;;;2.75;;
52786;SDS011;38661;53.152;5.846;2024-01-07T13:36:52;4.53;;;3.00;;
52786;SDS011;38661;53.152;5.846;2024-01-07T13:39:18;3.83;;;2.40;;
52786;SDS011;38661;53.152;5.846;2024-01-07T13:41:46;7.05;;;3.60;;
52786;SDS011;38661;53.152;5.846;2024-01-07T13:44:12;6.43;;;3.20;;
52786;SDS011;38661;53.152;5.846;2024-01-07T13:46:45;9.80;;;3.45;;
52786;SDS011;38661;53.152;5.846;2024-01-07T13:49:15;6.13;;;2.72;;
52786;SDS011;38661;53.152;5.846;2024-01-07T13:51:41;7.30;;;2.67;;
52786;SDS011;38661;53.152;5.846;2024-01-07T13:54:07;5.75;;;2.13;;
52786;SDS011;38661;53.152;5.846;2024-01-07T13:56:36;5.30;;;2.40;;
52786;SDS011;38661;53.152;5.846;2024-01-07T13:59:02;5.30;;;2.70;;
52786;SDS011;38661;53.152;5.846;2024-01-07T14:01:28;4.35;;;2.38;;
52786;SDS011;38661;53.152;5.846;2024-01-07T14:03:54;4.07;;;2.53;;
52786;SDS011;38661;53.152;5.846;2024-01-07T14:06:21;3.53;;;2.33;;
52786;SDS011;38661;53.152;5.846;2024-01-07T14:08:46;8.30;;;2.60;;
52786;SDS011;38661;53.152;5.846;2024-01-07T14:11:12;6.78;;;2.80;;
52786;SDS011;38661;53.152;5.846;2024-01-07T14:13:38;4.65;;;2.55;;
52786;SDS011;38661;53.152;5.846;2024-01-07T14:16:04;4.63;;;2.85;;
52786;SDS011;38661;53.152;5.846;2024-01-07T14:18:30;5.68;;;2.63;;
52786;SDS011;38661;53.152;5.846;2024-01-07T14:20:56;4.72;;;2.90;;
52786;SDS011;38661;53.152;5.846;2024-01-07T14:23:21;5.40;;;3.00;;
52786;SDS011;38661;53.152;5.846;2024-01-07T14:25:47;6.25;;;2.58;;
52786;SDS011;38661;53.152;5.846;2024-01-07T14:28:13;6.88;;;3.08;;
52786;SDS011;38661;53.152;5.846;2024-01-07T14:30:38;4.55;;;2.83;;
52786;SDS011;38661;53.152;5.846;2024-01-07T14:33:04;5.15;;;2.50;;
52786;SDS011;38661;53.152;5.846;2024-01-07T14:35:30;5.57;;;3.10;;
52786;SDS011;38661;53.152;5.846;2024-01-07T14:37:58;4.80;;;2.60;;
52786;SDS011;38661;53.152;5.846;2024-01-07T14:40:24;4.40;;;2.40;;
52786;SDS011;38661;53.152;5.846;2024-01-07T14:42:50;3.92;;;2.75;;
52786;SDS011;38661;53.152;5.846;2024-01-07T14:45:20;3.78;;;2.45;;
52786;SDS011;38661;53.152;5.846;2024-01-07T14:47:45;5.32;;;2.97;;
52786;SDS011;38661;53.152;5.846;2024-01-07T14:50:11;6.03;;;3.15;;